Latest Weather Observations for Perth

IDW60901

Issued at 6:11 am WST Thursday 29 September 2016 (issued every 10 minutes, with the page automatically refreshed every 10 minutes)

About weather observations | Map of Perth area stations | Latest observations for Perth area | Other Formats
Station Details ID: 009225 Name: PERTH METRO Lat: -31.92 Lon: 115.87 Height: 24.9 m
Data from the previous 72 hours. | See also: Recent months at Perth
Date/Time
WST
Temp
°C
App
Temp
°C
Dew
Point
°C
Rel
Hum
%
Delta-T
°C
Wind Press
QNH
hPa
Press
MSL
hPa
Rain since
9am
mm
Dir  Spd
km/h
Gust
km/h
Spd
kts
Gust
kts
29/06:00am 6.2 2.9 2.7 78 1.4 ENE 9 17 5 9 1022.0 1022.0 -
29/05:30am 4.7 2.8 2.7 87 0.8 E 2 7 1 4 1022.2 1022.2 -
29/05:00am 4.4 2.4 2.4 87 0.8 E 2 6 1 3 1022.1 1022.1 -
29/04:30am 5.3 3.7 2.5 82 1.1 CALM 0 0 0 0 1022.0 1022.0 -
29/04:00am 6.5 4.2 2.6 76 1.6 E 4 9 2 5 1021.9 1021.9 -
29/03:30am 7.2 4.0 2.9 74 1.8 ENE 9 17 5 9 1021.7 1021.7 -
29/03:00am 7.2 4.0 3.3 76 1.6 ENE 9 15 5 8 1021.7 1021.7 0.0
29/02:30am 7.6 4.5 3.6 76 1.7 ENE 9 17 5 9 1021.9 1021.9 -
29/02:00am 6.2 3.7 4.5 89 0.7 SSE 7 9 4 5 1022.1 1022.1 -
29/01:30am 5.6 4.4 4.6 93 0.4 CALM 0 0 0 0 1022.4 1022.4 -
29/01:00am 5.8 4.6 4.8 93 0.4 CALM 0 0 0 0 1022.6 1022.6 -
29/12:30am 6.1 5.0 4.9 92 0.5 CALM 0 0 0 0 1022.7 1022.7 -
29/12:00am 6.4 5.2 4.7 89 0.7 CALM 0 0 0 0 1023.1 1023.1 -
 
Date/Time
WST
Temp
°C
App
Temp
°C
Dew
Point
°C
Rel
Hum
%
Delta-T
°C
Wind Press
QNH
hPa
Press
MSL
hPa
Rain since
9am
mm
Dir  Spd
km/h
Gust
km/h
Spd
kts
Gust
kts
28/11:30pm 7.1 6.0 5.1 87 0.9 CALM 0 4 0 2 1023.0 1023.0 -
28/11:00pm 8.0 7.0 5.5 84 1.1 CALM 0 0 0 0 1023.0 1023.0 -
28/10:30pm 9.0 6.9 5.6 79 1.5 SSE 6 9 3 5 1023.0 1023.0 -
28/10:00pm 9.5 7.3 5.5 76 1.8 SSE 6 9 3 5 1023.2 1023.2 -
28/09:30pm 10.2 7.8 5.4 72 2.2 SSE 7 11 4 6 1023.5 1023.5 -
28/09:00pm 11.0 8.2 5.1 67 2.7 SSE 9 15 5 8 1023.6 1023.6 0.0
28/08:30pm 11.5 8.4 5.4 66 2.8 SSE 11 15 6 8 1023.4 1023.4 -
28/08:00pm 12.0 8.9 5.4 64 3.0 SSW 11 19 6 10 1023.2 1023.2 -
28/07:30pm 12.2 8.8 5.8 65 3.0 SSW 13 19 7 10 1023.3 1023.3 -
28/07:00pm 12.4 8.6 5.8 64 3.1 SSW 15 26 8 14 1023.0 1023.0 -
28/06:30pm 12.5 9.1 5.9 64 3.1 SSW 13 22 7 12 1022.9 1022.9 -
28/06:00pm 12.7 9.2 5.6 62 3.3 SSW 13 20 7 11 1022.6 1022.6 -
28/05:30pm 13.5 10.1 5.9 60 3.6 SW 13 20 7 11 1022.5 1022.5 -
28/05:00pm 14.1 9.8 5.2 55 4.2 SW 17 28 9 15 1022.3 1022.3 -
28/04:30pm 14.6 10.6 5.1 53 4.5 SSW 15 24 8 13 1022.2 1022.2 -
28/04:00pm 14.8 10.9 5.3 53 4.5 SSW 15 28 8 15 1022.3 1022.3 -
28/03:30pm 15.0 10.6 5.0 51 4.7 SW 17 28 9 15 1022.4 1022.4 -
28/03:00pm 14.9 10.4 4.3 49 4.9 SW 17 26 9 14 1022.4 1022.4 -
28/02:30pm 15.2 11.0 4.0 47 5.2 SW 15 24 8 13 1022.3 1022.3 -
28/02:00pm 15.4 11.7 4.5 48 5.1 SW 13 26 7 14 1022.5 1022.5 -
28/01:30pm 14.9 10.8 4.3 49 4.9 SW 15 22 8 12 1022.8 1022.8 -
28/01:00pm 14.3 9.8 4.0 50 4.7 SW 17 28 9 15 1023.1 1023.1 -
28/12:30pm 13.8 9.8 2.7 47 4.9 SSW 13 22 7 12 1023.3 1023.3 -
28/12:00pm 14.6 10.3 3.4 47 5.0 SSW 15 28 8 15 1023.6 1023.6 0.2
28/11:30am 13.7 9.3 2.6 47 4.9 S 15 24 8 13 1023.8 1023.8 0.2
28/11:00am 13.6 9.0 1.6 44 5.2 SSW 15 28 8 15 1024.0 1024.0 0.0
28/10:30am 13.6 8.8 2.8 48 4.8 SSE 17 28 9 15 1024.1 1024.1 0.0
28/10:00am 12.5 7.8 3.2 53 4.1 S 17 32 9 17 1024.1 1024.1 0.0
28/09:30am 12.2 7.2 3.4 55 3.9 SSE 19 28 10 15 1024.1 1024.1 0.0
28/09:00am 11.9 7.6 3.2 55 3.8 S 15 26 8 14 1024.1 1024.1 5.4
28/08:30am 11.1 6.3 2.7 56 3.6 SSE 17 26 9 14 1023.8 1023.8 5.4
28/08:00am 10.6 6.0 3.6 62 3.1 SSE 17 24 9 13 1023.6 1023.6 5.4
28/07:30am 9.6 5.6 3.1 64 2.8 S 13 24 7 13 1023.1 1023.1 5.4
28/07:00am 8.9 5.7 3.3 68 2.4 S 9 15 5 8 1022.5 1022.5 5.4
28/06:30am 8.3 5.1 3.0 69 2.2 SSW 9 19 5 10 1022.1 1022.1 5.4
28/06:00am 7.9 4.8 3.4 73 1.9 SSE 9 13 5 7 1021.4 1021.4 5.4
28/05:30am 7.8 5.1 3.7 75 1.8 SSE 7 11 4 6 1020.7 1020.7 5.4
28/05:00am 7.1 4.6 3.9 80 1.4 SSE 6 13 3 7 1020.1 1020.1 5.4
28/04:30am 6.5 4.8 3.8 83 1.1 SSE 2 9 1 5 1019.9 1019.9 5.4
28/04:00am 7.3 4.9 4.1 80 1.4 SSE 6 11 3 6 1019.4 1019.3 5.4
28/03:30am 8.2 5.3 4.4 77 1.7 SSE 9 11 5 6 1019.1 1019.0 5.4
28/03:00am 8.3 5.8 4.5 77 1.7 SSW 7 15 4 8 1018.9 1018.8 5.4
28/02:30am 8.4 5.5 4.6 77 1.7 S 9 15 5 8 1018.6 1018.5 5.4
28/02:00am 9.3 6.0 4.5 72 2.1 S 11 19 6 10 1018.6 1018.5 5.4
28/01:30am 9.5 5.4 4.5 71 2.2 S 15 24 8 13 1018.4 1018.3 5.4
28/01:00am 9.7 5.8 5.5 75 1.9 SSW 15 24 8 13 1017.9 1017.8 5.4
28/12:30am 9.5 6.4 5.5 76 1.8 S 11 17 6 9 1017.5 1017.4 5.2
28/12:00am 10.4 6.7 4.3 66 2.7 SSW 13 22 7 12 1017.2 1017.1 5.2
 
Date/Time
WST
Temp
°C
App
Temp
°C
Dew
Point
°C
Rel
Hum
%
Delta-T
°C
Wind Press
QNH
hPa
Press
MSL
hPa
Rain since
9am
mm
Dir  Spd
km/h
Gust
km/h
Spd
kts
Gust
kts
27/11:30pm 10.8 7.6 5.3 69 2.5 S 11 20 6 11 1016.8 1016.7 5.2
27/11:00pm 11.1 6.3 5.4 68 2.6 SSW 20 33 11 18 1017.0 1016.9 5.2
27/10:30pm 11.3 5.8 4.1 61 3.2 SW 22 39 12 21 1017.0 1016.9 5.2
27/10:00pm 11.8 6.9 5.0 63 3.1 SW 20 30 11 16 1016.9 1016.8 5.2
27/09:30pm 11.1 6.4 5.2 67 2.7 SW 19 35 10 19 1016.6 1016.5 5.2
27/09:00pm 10.0 6.0 6.5 79 1.6 SW 17 39 9 21 1016.4 1016.3 5.0
27/08:47pm 11.2 4.9 5.5 68 2.6 SW 28 57 15 31 1016.5 1016.4 4.8
27/08:30pm 12.8 7.4 4.5 57 3.8 SW 22 44 12 24 1015.8 1015.7 4.4
27/08:00pm 12.6 6.9 5.1 60 3.5 SW 24 43 13 23 1015.4 1015.3 4.4
27/07:30pm 12.5 7.2 5.2 61 3.4 SW 22 37 12 20 1014.9 1014.8 4.4
27/07:00pm 11.8 6.1 4.8 62 3.2 SW 24 43 13 23 1014.5 1014.4 4.4
27/06:50pm 12.6 6.2 5.1 60 3.5 SW 28 50 15 27 1014.5 1014.4 4.4
27/06:30pm 12.9 8.2 6.0 63 3.3 SW 20 41 11 22 1014.1 1014.0 4.4
27/06:00pm 13.3 7.5 6.2 62 3.4 SW 26 43 14 23 1013.7 1013.6 4.4
27/05:41pm 13.7 7.5 6.1 60 3.6 SW 28 46 15 25 1013.3 1013.2 4.4
27/05:30pm 13.9 9.1 7.2 64 3.3 SW 22 44 12 24 1013.1 1013.0 4.4
27/05:22pm 13.9 7.9 7.2 64 3.3 SW 28 48 15 26 1013.0 1012.9 4.4
27/05:00pm 14.5 9.6 6.8 60 3.7 SW 22 46 12 25 1012.7 1012.6 4.4
27/04:30pm 14.5 9.3 7.3 62 3.5 SW 24 44 13 24 1012.0 1012.0 4.4
27/04:05pm 15.2 9.7 9.1 67 3.1 WSW 28 46 15 25 1011.6 1011.6 4.4
27/04:00pm 14.7 8.6 8.4 66 3.2 SW 30 46 16 25 1011.6 1011.6 4.4
27/03:47pm 14.6 8.6 8.8 68 2.9 WSW 30 70 16 38 1011.5 1011.5 4.4
27/03:38pm 14.6 9.1 9.2 70 2.8 WSW 28 46 15 25 1011.3 1011.3 4.4
27/03:30pm 14.2 9.9 9.4 73 2.5 WSW 22 37 12 20 1011.3 1011.3 4.4
27/03:00pm 15.1 11.1 9.2 68 3.0 WSW 20 39 11 21 1011.0 1011.0 4.4
27/02:30pm 13.1 11.3 10.8 86 1.2 WSW 11 17 6 9 1010.9 1010.9 4.4
27/02:00pm 12.6 9.0 10.5 87 1.1 SW 20 37 11 20 1011.1 1011.1 4.0
27/01:37pm 13.2 10.0 11.8 91 0.7 W 20 56 11 30 1010.9 1010.9 3.0
27/01:30pm 13.7 11.2 12.3 91 0.8 WNW 17 35 9 19 1010.5 1010.5 2.0
27/01:00pm 13.5 9.2 10.9 84 1.4 W 24 43 13 23 1011.0 1011.0 0.8
27/12:30pm 18.2 14.8 11.3 64 3.8 WNW 20 41 11 22 1010.6 1010.6 0.2
27/12:00pm 19.3 15.3 10.3 56 4.8 WNW 22 48 12 26 1011.2 1011.2 0.2
27/11:30am 19.0 16.0 11.8 63 4.0 WNW 19 33 10 18 1011.6 1011.6 0.2
27/11:00am 18.3 14.5 11.1 63 3.9 WNW 22 41 12 22 1012.1 1012.1 0.2
27/10:30am 19.0 15.7 10.8 59 4.4 WNW 19 39 10 21 1012.5 1012.4 0.2
27/10:00am 17.5 14.5 11.8 69 3.1 WNW 19 37 10 20 1012.9 1012.8 0.0
27/09:30am 18.5 15.0 10.8 61 4.2 WNW 20 33 11 18 1013.3 1013.2 0.0
27/09:00am 18.1 15.5 10.7 62 4.0 WNW 15 28 8 15 1013.5 1013.4 3.6
27/08:30am 17.6 14.6 9.2 58 4.4 WNW 15 32 8 17 1013.8 1013.7 3.6
27/08:00am 16.3 13.3 10.6 69 3.0 WNW 17 32 9 17 1014.1 1014.0 3.6
27/07:30am 15.4 13.1 10.6 73 2.5 WNW 13 32 7 17 1014.1 1014.0 3.6
27/07:00am 14.8 14.3 12.5 86 1.3 NW 7 19 4 10 1014.0 1013.9 3.6
27/06:30am 13.8 12.6 11.7 87 1.1 NW 9 17 5 9 1014.2 1014.1 3.6
27/06:00am 13.6 11.4 12.2 91 0.8 NW 15 30 8 16 1014.5 1014.4 3.6
27/05:30am 12.3 12.5 11.7 96 0.3 NNW 2 9 1 5 1014.6 1014.5 3.6
27/05:00am 12.5 13.0 11.6 94 0.5 CALM 0 0 0 0 1014.8 1014.7 3.6
27/04:30am 13.2 12.8 12.3 94 0.5 WNW 6 11 3 6 1015.0 1014.9 3.6
27/04:00am 13.4 12.0 12.3 93 0.6 WNW 11 32 6 17 1015.3 1015.2 3.6
27/03:30am 13.6 13.2 12.5 93 0.6 WNW 6 13 3 7 1015.2 1015.1 3.2
27/03:00am 13.7 12.7 12.3 91 0.8 NW 9 15 5 8 1015.7 1015.6 3.2
27/02:30am 14.0 13.1 11.5 85 1.3 NNW 7 19 4 10 1016.0 1015.9 1.4
27/02:00am 14.1 12.3 12.1 88 1.1 W 13 22 7 12 1016.5 1016.4 1.4
27/01:30am 15.0 13.7 11.2 78 2.0 NW 9 17 5 9 1016.8 1016.7 0.4
27/01:00am 14.3 13.1 11.6 84 1.4 NW 9 17 5 9 1017.2 1017.1 0.4
27/12:30am 13.7 13.4 12.6 93 0.6 WNW 6 9 3 5 1017.5 1017.4 0.4
27/12:00am 13.9 13.5 12.3 90 0.9 W 6 13 3 7 1017.6 1017.5 0.4
 
Date/Time
WST
Temp
°C
App
Temp
°C
Dew
Point
°C
Rel
Hum
%
Delta-T
°C
Wind Press
QNH
hPa
Press
MSL
hPa
Rain since
9am
mm
Dir  Spd
km/h
Gust
km/h
Spd
kts
Gust
kts
26/11:30pm 14.1 13.4 12.1 88 1.1 WSW 7 13 4 7 1018.0 1017.9 0.2
26/11:00pm 14.6 15.0 12.6 88 1.1 WSW 2 6 1 3 1018.2 1018.1 0.2
26/10:30pm 15.0 13.9 12.1 83 1.6 WSW 9 15 5 8 1018.7 1018.6 0.0
26/10:00pm 14.3 14.0 11.6 84 1.4 W 4 9 2 5 1018.7 1018.6 0.0
26/09:30pm 13.6 13.5 10.8 83 1.5 W 2 6 1 3 1018.8 1018.7 0.0
26/09:00pm 14.4 14.1 11.4 82 1.6 W 4 9 2 5 1018.9 1018.8 0.0
26/08:30pm 14.7 14.0 11.5 81 1.7 WNW 6 9 3 5 1018.8 1018.7 0.0
26/08:00pm 14.7 13.9 11.1 79 1.9 WNW 6 9 3 5 1018.9 1018.8 0.0
26/07:30pm 14.7 13.6 10.7 77 2.1 WNW 7 13 4 7 1018.7 1018.6 0.0
26/07:00pm 15.4 13.9 10.6 73 2.5 W 9 19 5 10 1018.6 1018.5 0.0
26/06:30pm 15.5 13.8 11.1 75 2.4 W 11 24 6 13 1018.6 1018.5 0.0
26/06:00pm 15.8 14.8 11.0 73 2.6 W 7 15 4 8 1018.5 1018.4 0.0
26/05:30pm 16.1 14.2 10.4 69 3.0 W 11 22 6 12 1018.8 1018.7 0.0
26/05:00pm 16.1 13.7 10.0 67 3.2 W 13 19 7 10 1018.7 1018.6 0.0
26/04:30pm 16.5 14.2 10.4 67 3.2 W 13 24 7 13 1018.6 1018.5 0.0
26/04:00pm 16.7 14.3 10.1 65 3.5 W 13 24 7 13 1018.6 1018.5 0.0
26/03:30pm 16.8 14.1 10.2 65 3.5 W 15 26 8 14 1018.7 1018.6 0.0
26/03:00pm 17.0 14.1 9.7 62 3.8 W 15 28 8 15 1018.8 1018.7 0.0
26/02:30pm 17.3 14.7 9.2 59 4.2 WNW 13 22 7 12 1018.8 1018.7 0.0
26/02:00pm 17.4 14.9 9.6 60 4.1 WNW 13 32 7 17 1019.1 1019.0 0.0
26/01:30pm 17.6 14.9 9.0 57 4.5 W 13 22 7 12 1019.3 1019.2 0.0
26/01:00pm 16.9 14.2 8.8 59 4.2 W 13 24 7 13 1019.5 1019.4 0.0
26/12:30pm 17.0 14.4 9.4 61 4.0 W 13 28 7 15 1020.1 1020.1 0.0
26/12:00pm 17.6 14.9 9.0 57 4.5 WNW 13 24 7 13 1020.2 1020.2 0.0
26/11:30am 17.1 14.2 8.0 55 4.6 WNW 13 20 7 11 1020.3 1020.3 0.0
26/11:00am 16.9 13.4 7.3 53 4.8 W 15 24 8 13 1020.5 1020.5 0.0
26/10:30am 17.6 14.3 8.2 54 4.8 W 15 24 8 13 1021.1 1021.1 0.0
26/10:00am 16.1 13.1 7.6 57 4.2 W 13 24 7 13 1021.1 1021.1 0.0
26/09:30am 16.0 13.7 7.5 57 4.2 WNW 9 19 5 10 1020.9 1020.9 0.0
26/09:00am 14.4 11.9 8.4 67 3.0 NNE 11 17 6 9 1021.1 1021.1 0.2
26/08:30am 12.4 10.2 7.7 73 2.3 NE 9 11 5 6 1021.0 1021.0 0.2
26/08:00am 11.0 9.0 6.9 76 1.9 NNE 7 13 4 7 1020.9 1020.9 0.2
26/07:30am 9.1 6.9 6.4 83 1.2 S 7 11 4 6 1020.8 1020.8 0.2
26/07:00am 7.4 5.2 6.3 93 0.5 SSW 7 9 4 5 1020.7 1020.7 0.2
26/06:30am 6.0 4.2 5.6 97 0.2 SSW 4 7 2 4 1020.6 1020.6 0.2

Latest Capital City Observations: Canberra | Sydney | Melbourne | Brisbane | Adelaide | Perth | Hobart | Darwin

Other Formats:

Comma delimited format used in spreadsheet applications
http://www.bom.gov.au/fwo/IDW60901/IDW60901.94608.axf

JavaScript Object Notation format (JSON) in row-major order
http://www.bom.gov.au/fwo/IDW60901/IDW60901.94608.json